createdAt,value
2023-02-01T00:04:14.460Z,1.00
2023-02-01T00:09:17.912Z,99.90
2023-02-01T00:14:21.310Z,99.90
2023-02-01T00:19:25.993Z,73.90
2023-02-01T00:24:29.621Z,1.00
2023-02-01T00:29:32.974Z,99.90
2023-02-01T00:34:40.130Z,99.90
2023-02-01T00:39:43.530Z,1.00
2023-02-01T00:44:46.819Z,1.00
2023-02-01T00:49:51.497Z,1.00
2023-02-01T00:54:54.786Z,1.00
2023-02-01T00:59:58.223Z,99.90
2023-02-01T01:05:03.208Z,99.90
2023-02-01T01:10:07.504Z,34.70
2023-02-01T01:15:11.552Z,74.70
2023-02-01T01:20:17.724Z,99.90
2023-02-01T01:25:21.171Z,99.90
2023-02-01T01:30:24.717Z,26.20
2023-02-01T01:35:31.228Z,74.90
2023-02-01T01:40:34.702Z,38.30
2023-02-01T01:45:38.299Z,53.70
2023-02-01T01:50:49.467Z,99.90
2023-02-01T01:55:53.382Z,99.90
2023-02-01T02:00:57.172Z,99.90
2023-02-01T02:06:05.345Z,99.90
2023-02-01T02:11:08.741Z,1.00
2023-02-01T02:16:36.352Z,1.00
2023-02-01T02:22:06.667Z,1.00
2023-02-01T02:27:26.615Z,1.00
2023-02-01T02:33:06.679Z,1.00
2023-02-01T02:38:22.563Z,1.00
2023-02-01T02:43:51.426Z,1.00
2023-02-01T02:49:03.077Z,1.00
2023-02-01T02:54:30.035Z,99.90
2023-02-01T02:59:53.855Z,1.00
2023-02-01T03:04:57.842Z,1.00
2023-02-01T03:10:07.445Z,36.00
2023-02-01T03:15:14.308Z,1.00
2023-02-01T03:20:23.123Z,99.90
2023-02-01T03:25:32.990Z,1.00
2023-02-01T03:30:39.353Z,1.00
2023-02-01T03:35:46.884Z,99.90
2023-02-01T03:40:56.338Z,1.00
2023-02-01T03:46:06.232Z,1.00
2023-02-01T03:51:11.611Z,99.90
2023-02-01T03:56:18.199Z,99.90
2023-02-01T04:01:21.731Z,1.00
2023-02-01T04:06:25.352Z,99.90
2023-02-01T04:11:32.343Z,1.00
2023-02-01T04:16:36.095Z,1.00
2023-02-01T04:21:39.600Z,5.30
2023-02-01T04:26:44.422Z,1.00
2023-02-01T04:31:47.877Z,1.00
2023-02-01T04:36:51.352Z,78.20
2023-02-01T04:41:56.129Z,1.00
2023-02-01T04:46:59.689Z,1.00
2023-02-01T04:52:03.025Z,1.00
2023-02-01T04:57:07.692Z,1.00
2023-02-01T05:02:11.059Z,1.00
2023-02-01T05:07:14.454Z,1.00
2023-02-01T05:12:36.814Z,1.00
2023-02-01T05:17:41.301Z,1.00
2023-02-01T05:22:44.772Z,1.00
2023-02-01T05:27:49.751Z,1.00
2023-02-01T05:32:53.250Z,1.00
2023-02-01T05:37:56.587Z,1.00
2023-02-01T05:43:01.399Z,1.00
2023-02-01T05:48:04.912Z,1.00
2023-02-01T05:53:08.623Z,1.00
2023-02-01T05:58:13.408Z,1.00
2023-02-01T06:03:16.723Z,1.00
2023-02-01T06:08:20.132Z,1.00
2023-02-01T06:13:24.818Z,1.00
2023-02-01T06:18:28.251Z,1.00
2023-02-01T06:23:32.176Z,1.00
2023-02-01T06:28:37.206Z,1.00
2023-02-01T06:33:41.570Z,1.00
2023-02-01T06:38:44.998Z,1.00
2023-02-01T06:43:49.733Z,1.00
2023-02-01T06:48:53.175Z,1.00
2023-02-01T06:53:56.976Z,1.00
2023-02-01T06:59:02.460Z,1.00
2023-02-01T07:04:06.057Z,1.00
2023-02-01T07:09:09.545Z,1.00
2023-02-01T07:14:14.391Z,1.00
2023-02-01T07:19:17.859Z,1.00
2023-02-01T07:24:21.313Z,1.00
2023-02-01T07:29:26.114Z,1.00
2023-02-01T07:34:29.433Z,1.00
2023-02-01T07:39:33.240Z,1.00
2023-02-01T07:44:37.983Z,1.00
2023-02-01T07:49:41.412Z,1.00
2023-02-01T07:54:44.892Z,1.00
2023-02-01T08:00:07.128Z,99.90
2023-02-01T08:05:15.975Z,1.00
2023-02-01T08:10:20.362Z,1.00
2023-02-01T08:15:25.419Z,1.00
2023-02-01T08:20:29.427Z,1.00
2023-02-01T08:25:33.175Z,39.90
2023-02-01T08:30:39.561Z,1.00
2023-02-01T08:35:44.321Z,1.00
2023-02-01T08:40:47.851Z,1.00
2023-02-01T08:45:56.919Z,99.90
2023-02-01T08:51:03.966Z,99.90
2023-02-01T08:56:08.304Z,99.90
2023-02-01T09:01:14.725Z,99.90
2023-02-01T09:06:18.681Z,80.90
2023-02-01T09:11:22.018Z,99.90
2023-02-01T09:16:26.965Z,99.90
2023-02-01T09:21:31.064Z,99.90
2023-02-01T09:26:34.495Z,1.00
2023-02-01T09:31:41.857Z,1.00
2023-02-01T09:36:47.589Z,1.00
2023-02-01T09:42:01.827Z,1.00
2023-02-01T09:47:11.995Z,1.00
2023-02-01T09:52:17.660Z,99.90
2023-02-01T09:57:27.817Z,1.00
2023-02-01T10:02:34.516Z,1.00
2023-02-01T10:07:46.107Z,1.00
2023-02-01T10:13:10.920Z,99.90
2023-02-01T10:18:28.405Z,99.90
2023-02-01T10:23:46.912Z,1.00
2023-02-01T10:28:53.229Z,1.00
2023-02-01T10:34:01.595Z,1.00
2023-02-01T10:39:08.935Z,1.00
2023-02-01T10:44:16.493Z,1.00
2023-02-01T10:49:28.744Z,1.00
2023-02-01T10:54:39.103Z,1.00
2023-02-01T10:59:44.248Z,1.00
2023-02-01T11:04:49.963Z,99.90
2023-02-01T11:09:56.028Z,99.90
2023-02-01T11:15:16.793Z,1.00
2023-02-01T11:20:28.703Z,1.00
2023-02-01T11:25:34.359Z,99.90
2023-02-01T11:30:42.907Z,99.90
2023-02-01T11:35:49.701Z,99.90
2023-02-01T11:40:53.067Z,99.90
2023-02-01T11:45:58.816Z,99.90
2023-02-01T11:51:18.877Z,99.90
2023-02-01T11:56:28.526Z,99.90
2023-02-01T12:01:52.190Z,99.90
2023-02-01T12:06:58.923Z,99.90
2023-02-01T12:12:10.788Z,99.90
2023-02-01T12:17:44.139Z,99.90
2023-02-01T12:23:01.118Z,99.90
2023-02-01T12:28:27.122Z,99.90
2023-02-01T12:33:38.645Z,99.90
2023-02-01T12:38:55.742Z,99.90
2023-02-01T12:44:07.770Z,99.90
2023-02-01T12:49:17.720Z,99.90
2023-02-01T12:54:26.983Z,99.90
2023-02-01T12:59:37.055Z,99.90
2023-02-01T13:04:47.053Z,1.00
2023-02-01T13:09:55.947Z,1.00
2023-02-01T13:15:04.738Z,1.00
2023-02-01T13:20:18.293Z,1.00
2023-02-01T13:25:31.917Z,1.00
2023-02-01T13:30:49.858Z,1.00
2023-02-01T13:36:19.483Z,99.90
2023-02-01T13:41:29.861Z,1.00
2023-02-01T13:46:42.298Z,72.30
2023-02-01T13:51:48.178Z,1.00
2023-02-01T13:56:53.307Z,99.90
2023-02-01T14:01:56.711Z,1.00
2023-02-01T14:07:00.632Z,99.90
2023-02-01T14:12:37.142Z,1.00
2023-02-01T14:17:42.193Z,1.00
2023-02-01T14:22:45.603Z,1.00
2023-02-01T14:27:49.058Z,1.00
2023-02-01T14:32:53.927Z,1.00
2023-02-01T14:38:05.201Z,99.90
2023-02-01T14:43:23.681Z,99.90
2023-02-01T14:48:49.590Z,99.90
2023-02-01T14:53:53.300Z,99.90
2023-02-01T14:59:02.857Z,99.90
2023-02-01T15:04:09.029Z,99.90
2023-02-01T15:09:16.708Z,99.90
2023-02-01T15:14:20.172Z,99.90
2023-02-01T15:19:26.880Z,99.90
2023-02-01T15:24:31.731Z,99.90
2023-02-01T15:29:35.292Z,99.90
2023-02-01T15:34:50.795Z,99.90
2023-02-01T15:40:20.818Z,99.90
2023-02-01T15:45:28.770Z,99.90
2023-02-01T15:50:34.066Z,99.90
2023-02-01T15:55:42.965Z,99.90
2023-02-01T16:00:48.899Z,99.90
2023-02-01T16:06:00.110Z,99.90
2023-02-01T16:11:17.279Z,99.90
2023-02-01T16:16:20.644Z,99.90
2023-02-01T16:21:26.220Z,99.90
2023-02-01T16:26:29.603Z,99.90
2023-02-01T16:31:35.102Z,99.90
2023-02-01T16:36:41.595Z,99.90
2023-02-01T16:41:46.311Z,99.90
2023-02-01T16:46:50.783Z,99.90
2023-02-01T16:52:00.636Z,99.90
2023-02-01T16:57:04.082Z,99.90
2023-02-01T17:02:07.692Z,99.90
2023-02-01T17:07:15.587Z,99.90
2023-02-01T17:12:24.828Z,99.90
2023-02-01T17:17:38.763Z,99.90
2023-02-01T17:22:43.785Z,99.90
2023-02-01T17:27:47.232Z,99.90
2023-02-01T17:32:50.543Z,99.90
2023-02-01T17:37:55.842Z,99.90
2023-02-01T17:42:59.125Z,99.90
2023-02-01T17:48:02.745Z,99.90
2023-02-01T17:53:10.026Z,99.90
2023-02-01T17:58:14.570Z,99.90
2023-02-01T18:03:24.709Z,99.90
2023-02-01T18:08:34.076Z,99.90
2023-02-01T18:13:38.152Z,99.90
2023-02-01T18:18:41.755Z,99.90
2023-02-01T18:23:46.933Z,99.90
2023-02-01T18:28:50.394Z,99.90
2023-02-01T18:33:54.941Z,99.90
2023-02-01T18:38:59.657Z,99.90
2023-02-01T18:44:04.502Z,99.90
2023-02-01T18:49:08.688Z,99.90
2023-02-01T18:54:13.479Z,99.90
2023-02-01T18:59:18.752Z,99.90
2023-02-01T19:04:26.105Z,99.90
2023-02-01T19:09:32.370Z,99.90
2023-02-01T19:14:35.793Z,99.90
2023-02-01T19:19:41.679Z,99.90
2023-02-01T19:24:46.683Z,99.90
2023-02-01T19:29:50.140Z,99.90
2023-02-01T19:34:53.882Z,99.90
2023-02-01T19:39:58.872Z,99.90
2023-02-01T19:45:02.180Z,99.90
2023-02-01T19:50:07.454Z,99.90
2023-02-01T19:55:12.489Z,99.90
2023-02-01T20:00:16.633Z,99.90
2023-02-01T20:05:21.268Z,99.90
2023-02-01T20:10:26.209Z,99.90
2023-02-01T20:15:29.608Z,99.90
2023-02-01T20:20:33.451Z,99.90
2023-02-01T20:25:39.753Z,99.90
2023-02-01T20:30:45.600Z,99.90
2023-02-01T20:35:49.749Z,99.90
2023-02-01T20:40:54.714Z,99.90
2023-02-01T20:45:58.186Z,99.90
2023-02-01T20:51:01.498Z,99.90
2023-02-01T20:56:07.296Z,99.90
2023-02-01T21:01:11.045Z,99.90
2023-02-01T21:06:14.937Z,99.90
2023-02-01T21:11:19.671Z,99.90
2023-02-01T21:16:26.950Z,99.90
2023-02-01T21:21:30.323Z,99.90
2023-02-01T21:26:41.134Z,99.90
2023-02-01T21:31:45.281Z,99.90
2023-02-01T21:36:48.669Z,99.90
2023-02-01T21:42:10.601Z,99.90
2023-02-01T21:47:14.291Z,99.90
2023-02-01T21:52:18.390Z,99.90
2023-02-01T21:57:23.109Z,99.90
2023-02-01T22:02:26.652Z,99.90
2023-02-01T22:07:30.056Z,99.90
2023-02-01T22:12:34.855Z,99.90
2023-02-01T22:17:38.293Z,99.90
2023-02-01T22:22:41.701Z,99.90
2023-02-01T22:28:31.118Z,99.90
2023-02-01T22:33:09.819Z,99.90
2023-02-01T22:38:13.128Z,99.90
2023-02-01T22:43:17.932Z,99.90
2023-02-01T22:48:21.760Z,99.90
2023-02-01T22:53:25.179Z,99.90
2023-02-01T22:58:31.149Z,99.90
2023-02-01T23:03:35.328Z,99.90
2023-02-01T23:08:40.555Z,99.90
2023-02-01T23:13:45.287Z,99.90
2023-02-01T23:18:49.250Z,99.90
2023-02-01T23:23:54.575Z,99.90
2023-02-01T23:29:00.437Z,99.90
2023-02-01T23:34:05.061Z,99.90
2023-02-01T23:39:08.507Z,99.90
2023-02-01T23:44:13.270Z,99.90
2023-02-01T23:49:18.120Z,99.90
2023-02-01T23:54:24.071Z,99.90
2023-02-01T23:59:30.670Z,99.90
